createdAt,value
2022-10-01T00:01:14.355Z,11.30
2022-10-01T00:06:11.025Z,11.60
2022-10-01T00:08:40.200Z,11.20
2022-10-01T00:11:08.953Z,11.70
2022-10-01T00:16:11.171Z,12.20
2022-10-01T00:18:39.845Z,12.20
2022-10-01T00:21:11.489Z,11.70
2022-10-01T00:23:38.638Z,12.10
2022-10-01T00:26:13.531Z,11.30
2022-10-01T00:31:08.560Z,13.20
2022-10-01T00:33:36.661Z,10.90
2022-10-01T00:36:05.387Z,11.00
2022-10-01T00:38:33.794Z,12.00
2022-10-01T00:41:01.229Z,10.80
2022-10-01T00:43:31.710Z,10.90
2022-10-01T00:46:04.674Z,12.60
2022-10-01T00:48:37.434Z,11.20
2022-10-01T00:51:06.470Z,11.50
2022-10-01T00:56:00.649Z,11.30
2022-10-01T00:58:27.889Z,12.90
2022-10-01T01:00:56.661Z,12.60
2022-10-01T01:03:23.988Z,12.90
2022-10-01T01:05:50.680Z,11.20
2022-10-01T01:08:18.253Z,10.90
2022-10-01T01:11:10.338Z,11.20
2022-10-01T01:14:05.905Z,12.20
2022-10-01T01:16:42.502Z,10.90
2022-10-01T01:19:39.634Z,12.30
2022-10-01T01:22:09.923Z,12.40
2022-10-01T01:27:37.809Z,11.00
2022-10-01T01:30:11.206Z,12.50
2022-10-01T01:32:56.420Z,13.40
2022-10-01T01:35:32.057Z,12.10
2022-10-01T01:38:05.196Z,13.10
2022-10-01T01:40:36.663Z,12.50
2022-10-01T01:43:07.941Z,12.00
2022-10-01T01:45:39.914Z,12.10
2022-10-01T01:48:09.779Z,12.10
2022-10-01T01:50:43.465Z,13.30
2022-10-01T01:53:11.254Z,12.30
2022-10-01T01:55:39.156Z,12.10
2022-10-01T01:58:06.112Z,13.40
2022-10-01T02:00:32.785Z,11.20
2022-10-01T02:02:59.793Z,11.10
2022-10-01T02:05:29.442Z,12.00
2022-10-01T02:08:23.775Z,13.40
2022-10-01T02:11:28.938Z,11.00
2022-10-01T02:14:24.093Z,12.40
2022-10-01T02:17:07.295Z,12.10
2022-10-01T02:19:44.301Z,12.70
2022-10-01T02:22:20.967Z,12.00
2022-10-01T02:24:59.875Z,12.20
2022-10-01T02:27:35.202Z,10.80
2022-10-01T02:30:07.825Z,13.00
2022-10-01T02:32:37.630Z,12.00
2022-10-01T02:35:07.309Z,12.20
2022-10-01T02:37:35.472Z,12.00
2022-10-01T02:40:04.128Z,13.60
2022-10-01T02:42:32.195Z,11.00
2022-10-01T02:45:02.500Z,12.10
2022-10-01T02:47:41.627Z,11.00
2022-10-01T02:50:09.434Z,12.20
2022-10-01T02:52:48.871Z,11.40
2022-10-01T02:55:22.589Z,11.00
2022-10-01T02:57:50.243Z,12.00
2022-10-01T03:00:21.226Z,12.20
2022-10-01T03:02:48.663Z,13.50
2022-10-01T03:05:16.641Z,11.00
2022-10-01T03:07:43.732Z,11.80
2022-10-01T03:10:12.609Z,12.70
2022-10-01T03:15:12.909Z,13.10
2022-10-01T03:20:07.650Z,11.20
2022-10-01T03:22:34.449Z,13.40
2022-10-01T03:25:01.137Z,13.60
2022-10-01T03:27:30.786Z,12.50
2022-10-01T03:29:57.464Z,11.50
2022-10-01T03:32:24.104Z,12.30
2022-10-01T03:34:51.128Z,12.90
2022-10-01T03:37:17.827Z,13.40
2022-10-01T03:47:05.844Z,13.90
2022-10-01T03:49:33.754Z,11.40
2022-10-01T03:52:00.948Z,14.00
2022-10-01T03:54:27.928Z,11.40
2022-10-01T03:56:54.576Z,12.10
2022-10-01T03:59:21.279Z,13.50
2022-10-01T04:04:16.241Z,12.20
2022-10-01T04:06:42.900Z,12.30
2022-10-01T04:09:09.883Z,14.30
2022-10-01T04:11:37.702Z,12.20
2022-10-01T04:14:07.063Z,13.10
2022-10-01T04:16:36.920Z,14.10
2022-10-01T04:19:04.828Z,12.00
2022-10-01T04:21:31.916Z,11.70
2022-10-01T04:26:26.732Z,13.20
2022-10-01T04:28:53.401Z,13.10
2022-10-01T04:31:26.209Z,14.30
2022-10-01T04:33:57.409Z,13.00
2022-10-01T04:36:25.421Z,13.50
2022-10-01T04:38:59.400Z,14.00
2022-10-01T04:41:30.163Z,14.30
2022-10-01T04:43:59.232Z,12.00
2022-10-01T04:46:26.096Z,12.00
2022-10-01T04:48:55.732Z,12.20
2022-10-01T04:51:25.630Z,13.70
2022-10-01T04:53:52.290Z,14.50
2022-10-01T04:58:46.052Z,14.00
2022-10-01T05:03:39.902Z,14.50
2022-10-01T05:08:36.799Z,12.20
2022-10-01T05:11:03.511Z,14.60
2022-10-01T05:13:31.820Z,12.20
2022-10-01T05:15:59.083Z,12.70
2022-10-01T05:18:25.775Z,12.40
2022-10-01T05:20:52.392Z,12.60
2022-10-01T05:28:16.038Z,13.30
2022-10-01T05:30:46.645Z,13.70
2022-10-01T05:33:13.340Z,12.30
2022-10-01T05:35:41.297Z,12.80
2022-10-01T05:40:37.070Z,14.90
2022-10-01T05:43:04.586Z,14.60
2022-10-01T05:45:32.357Z,12.90
2022-10-01T05:48:01.270Z,14.80
2022-10-01T05:50:31.363Z,12.90
2022-10-01T05:52:59.252Z,12.40
2022-10-01T05:55:26.581Z,14.80
2022-10-01T05:57:57.818Z,14.30
2022-10-01T06:00:29.182Z,13.50
2022-10-01T06:02:59.828Z,14.80
2022-10-01T06:05:28.462Z,13.50
2022-10-01T06:10:22.858Z,14.90
2022-10-01T06:15:17.962Z,14.40
2022-10-01T06:17:45.258Z,13.50
2022-10-01T06:20:13.948Z,14.00
2022-10-01T06:22:42.890Z,15.70
2022-10-01T06:25:15.543Z,14.40
2022-10-01T06:27:42.478Z,16.60
2022-10-01T06:30:09.763Z,17.10
2022-10-01T06:32:36.703Z,15.00
2022-10-01T06:35:04.158Z,15.60
2022-10-01T06:37:30.862Z,15.70
2022-10-01T06:42:24.787Z,18.50
2022-10-01T06:44:51.504Z,18.10
2022-10-01T06:49:47.641Z,18.00
2022-10-01T06:52:33.953Z,18.00
2022-10-01T06:55:01.431Z,19.70
2022-10-01T06:57:28.945Z,19.90
2022-10-01T06:59:55.762Z,20.00
2022-10-01T07:02:28.652Z,19.50
2022-10-01T07:04:59.433Z,20.40
2022-10-01T07:07:31.043Z,20.60
2022-10-01T07:09:58.885Z,20.90
2022-10-01T07:12:26.365Z,21.30
2022-10-01T07:14:53.793Z,22.00
2022-10-01T07:17:21.430Z,22.20
2022-10-01T07:22:15.416Z,22.40
2022-10-01T07:24:42.127Z,22.60
2022-10-01T07:27:12.948Z,21.70
2022-10-01T07:29:39.601Z,21.40
2022-10-01T07:32:08.776Z,20.20
2022-10-01T07:34:38.141Z,19.90
2022-10-01T07:39:32.339Z,18.90
2022-10-01T07:44:27.766Z,17.90
2022-10-01T07:46:54.448Z,17.60
